createdAt,value
2023-01-29T00:00:01.319Z,4.57
2023-01-29T00:02:43.140Z,4.38
2023-01-29T00:05:26.893Z,5.57
2023-01-29T00:07:59.281Z,7.30
2023-01-29T00:10:29.621Z,5.00
2023-01-29T00:12:59.346Z,7.60
2023-01-29T00:15:30.008Z,4.70
2023-01-29T00:18:00.816Z,4.25
2023-01-29T00:20:30.750Z,8.43
2023-01-29T00:23:00.716Z,7.20
2023-01-29T00:25:30.670Z,5.57
2023-01-29T00:28:02.020Z,6.68
2023-01-29T00:30:33.650Z,6.03
2023-01-29T00:33:03.557Z,4.10
2023-01-29T00:35:37.691Z,6.13
2023-01-29T00:38:08.608Z,5.47
2023-01-29T00:41:13.297Z,6.85
2023-01-29T00:44:01.978Z,6.10
2023-01-29T00:46:32.790Z,7.05
2023-01-29T00:49:03.019Z,6.43
2023-01-29T00:51:35.232Z,6.63
2023-01-29T00:54:07.843Z,8.38
2023-01-29T00:56:39.145Z,7.82
2023-01-29T00:59:09.473Z,9.38
2023-01-29T01:02:00.201Z,6.82
2023-01-29T01:04:32.222Z,9.32
2023-01-29T01:07:04.522Z,7.75
2023-01-29T01:09:56.499Z,6.80
2023-01-29T01:12:27.563Z,10.75
2023-01-29T01:14:58.044Z,8.77
2023-01-29T01:17:28.707Z,6.60
2023-01-29T01:20:00.000Z,6.53
2023-01-29T01:22:30.995Z,7.22
2023-01-29T01:25:01.199Z,11.00
2023-01-29T01:27:31.627Z,9.80
2023-01-29T01:30:01.900Z,11.18
2023-01-29T01:32:32.662Z,8.75
2023-01-29T01:35:04.201Z,4.88
2023-01-29T01:37:35.651Z,6.45
2023-01-29T01:40:19.388Z,10.38
2023-01-29T01:42:57.811Z,10.32
2023-01-29T01:45:33.297Z,12.20
2023-01-29T01:50:56.577Z,9.98
2023-01-29T01:53:42.246Z,9.77
2023-01-29T01:56:21.596Z,11.68
2023-01-29T01:59:00.027Z,14.85
2023-01-29T02:01:30.624Z,14.25
2023-01-29T02:04:43.242Z,13.68
2023-01-29T02:07:35.416Z,12.80
2023-01-29T02:10:35.922Z,12.63
2023-01-29T02:13:07.866Z,12.15
2023-01-29T02:15:38.734Z,12.90
2023-01-29T02:18:09.458Z,10.73
2023-01-29T02:20:44.606Z,14.25
2023-01-29T02:23:28.494Z,9.48
2023-01-29T02:26:22.635Z,12.23
2023-01-29T02:28:57.213Z,13.07
2023-01-29T02:31:57.438Z,13.98
2023-01-29T02:34:53.070Z,9.68
2023-01-29T02:37:36.088Z,12.10
2023-01-29T02:40:32.481Z,14.05
2023-01-29T02:43:36.706Z,13.02
2023-01-29T02:46:12.466Z,12.82
2023-01-29T02:49:07.210Z,12.85
2023-01-29T02:51:47.111Z,14.00
2023-01-29T02:54:33.143Z,13.23
2023-01-29T02:57:17.318Z,10.38
2023-01-29T03:00:17.936Z,8.45
2023-01-29T03:05:30.348Z,14.02
2023-01-29T03:08:11.391Z,8.48
2023-01-29T03:11:03.909Z,14.50
2023-01-29T03:13:44.234Z,12.25
2023-01-29T03:16:20.793Z,11.57
2023-01-29T03:19:00.510Z,14.88
2023-01-29T03:21:56.213Z,9.68
2023-01-29T03:24:52.207Z,13.02
2023-01-29T03:27:50.833Z,8.60
2023-01-29T03:30:41.918Z,9.60
2023-01-29T03:33:29.281Z,8.80
2023-01-29T03:36:07.684Z,10.27
2023-01-29T03:38:38.184Z,18.08
2023-01-29T03:41:30.324Z,9.18
2023-01-29T03:44:09.456Z,11.05
2023-01-29T03:47:05.535Z,11.57
2023-01-29T03:50:02.238Z,11.85
2023-01-29T03:52:44.762Z,14.77
2023-01-29T03:55:45.449Z,14.40
2023-01-29T03:58:37.203Z,14.88
2023-01-29T04:01:27.668Z,17.60
2023-01-29T04:04:28.277Z,15.45
2023-01-29T04:07:05.799Z,13.82
2023-01-29T04:09:41.129Z,21.52
2023-01-29T04:12:13.750Z,11.30
2023-01-29T04:14:47.553Z,16.17
2023-01-29T04:17:26.452Z,15.25
2023-01-29T04:20:20.122Z,14.85
2023-01-29T04:22:52.460Z,16.00
2023-01-29T04:25:27.716Z,10.27
2023-01-29T04:28:27.598Z,15.05
2023-01-29T04:31:05.375Z,10.52
2023-01-29T04:33:41.383Z,9.90
2023-01-29T04:38:53.567Z,12.15
2023-01-29T04:41:45.943Z,15.85
2023-01-29T04:44:28.302Z,12.98
2023-01-29T04:47:29.706Z,15.00
2023-01-29T04:50:16.966Z,13.23
2023-01-29T04:53:21.149Z,12.63
2023-01-29T04:56:00.581Z,10.30
2023-01-29T04:58:34.991Z,13.82
2023-01-29T05:01:09.933Z,10.60
2023-01-29T05:03:44.995Z,12.88
2023-01-29T05:06:17.296Z,16.85
2023-01-29T05:08:49.030Z,9.40
2023-01-29T05:11:24.293Z,10.23
2023-01-29T05:13:56.285Z,9.50
2023-01-29T05:16:31.379Z,13.23
2023-01-29T05:19:02.469Z,16.52
2023-01-29T05:21:35.283Z,15.60
2023-01-29T05:24:22.512Z,8.40
2023-01-29T05:27:19.877Z,8.88
2023-01-29T05:29:50.665Z,15.57
2023-01-29T05:32:21.612Z,14.73
2023-01-29T05:34:51.805Z,14.05
2023-01-29T05:37:21.777Z,11.63
2023-01-29T05:39:52.012Z,13.77
2023-01-29T05:42:21.934Z,11.07
2023-01-29T05:44:53.103Z,11.55
2023-01-29T05:47:23.663Z,8.73
2023-01-29T05:49:54.251Z,11.70
2023-01-29T05:52:23.967Z,11.85
2023-01-29T05:54:54.372Z,13.02
2023-01-29T05:57:24.138Z,10.73
2023-01-29T05:59:55.130Z,12.50
2023-01-29T06:02:26.081Z,12.60
2023-01-29T06:04:56.277Z,13.63
2023-01-29T06:07:26.028Z,15.55
2023-01-29T06:09:56.558Z,9.75
2023-01-29T06:12:27.343Z,8.55
2023-01-29T06:14:58.759Z,10.68
2023-01-29T06:17:28.475Z,13.75
2023-01-29T06:19:58.634Z,8.68
2023-01-29T06:22:28.769Z,11.90
2023-01-29T06:24:58.686Z,11.93
2023-01-29T06:27:29.236Z,17.00
2023-01-29T06:30:00.887Z,18.52
2023-01-29T06:32:32.262Z,11.20
2023-01-29T06:35:02.446Z,18.92
2023-01-29T06:37:33.093Z,15.82
2023-01-29T06:40:04.287Z,13.55
2023-01-29T06:42:37.519Z,10.68
2023-01-29T06:45:09.601Z,10.95
2023-01-29T06:47:39.303Z,11.32
2023-01-29T06:50:11.278Z,15.50
2023-01-29T06:52:41.709Z,14.80
2023-01-29T06:55:12.508Z,13.18
2023-01-29T06:57:42.773Z,14.38
2023-01-29T07:00:13.194Z,12.52
2023-01-29T07:02:44.459Z,12.85
2023-01-29T07:05:15.289Z,12.90
2023-01-29T07:07:46.039Z,9.73
2023-01-29T07:10:16.461Z,15.18
2023-01-29T07:12:47.942Z,10.38
2023-01-29T07:15:21.426Z,15.10
2023-01-29T07:18:17.889Z,15.45
2023-01-29T07:20:48.070Z,14.13
2023-01-29T07:23:19.469Z,12.77
2023-01-29T07:25:53.661Z,18.63
2023-01-29T07:28:23.944Z,14.02
2023-01-29T07:31:01.191Z,12.23
2023-01-29T07:33:32.429Z,13.82
2023-01-29T07:36:02.795Z,10.20
2023-01-29T07:38:32.924Z,17.02
2023-01-29T07:41:03.355Z,10.07
2023-01-29T07:43:34.498Z,17.40
2023-01-29T07:46:05.899Z,12.20
2023-01-29T07:48:37.808Z,17.27
2023-01-29T07:51:08.718Z,14.45
2023-01-29T07:53:38.532Z,13.75
2023-01-29T07:56:09.852Z,17.10
2023-01-29T07:58:40.511Z,12.90
2023-01-29T08:01:10.574Z,13.05
2023-01-29T08:03:40.716Z,14.82
2023-01-29T08:06:11.756Z,21.00
2023-01-29T08:08:42.568Z,17.65
2023-01-29T08:11:12.495Z,19.20
2023-01-29T08:13:42.827Z,14.48
2023-01-29T08:16:12.853Z,14.15
2023-01-29T08:18:48.843Z,17.25
2023-01-29T08:21:19.471Z,17.77
2023-01-29T08:23:49.520Z,14.90
2023-01-29T08:26:20.072Z,14.20
2023-01-29T08:28:50.922Z,19.10
2023-01-29T08:31:22.402Z,14.13
2023-01-29T08:33:54.908Z,11.93
2023-01-29T08:36:25.049Z,18.05
2023-01-29T08:38:55.753Z,13.40
2023-01-29T08:41:26.972Z,13.65
2023-01-29T08:43:58.479Z,19.75
2023-01-29T08:46:28.432Z,14.98
2023-01-29T08:48:59.963Z,20.23
2023-01-29T08:51:30.849Z,24.50
2023-01-29T08:54:00.911Z,15.18
2023-01-29T08:56:31.099Z,20.52
2023-01-29T08:59:01.945Z,16.08
2023-01-29T09:01:32.787Z,19.45
2023-01-29T09:04:02.610Z,21.90
2023-01-29T09:06:33.428Z,24.63
2023-01-29T09:09:05.319Z,19.05
2023-01-29T09:11:35.712Z,25.75
2023-01-29T09:14:06.782Z,19.90
2023-01-29T09:16:37.226Z,25.13
2023-01-29T09:19:07.688Z,17.30
2023-01-29T09:21:39.114Z,18.17
2023-01-29T09:24:09.639Z,21.50
2023-01-29T09:26:41.230Z,22.00
2023-01-29T09:29:13.758Z,23.92
2023-01-29T09:31:44.208Z,26.77
2023-01-29T09:34:14.622Z,23.25
2023-01-29T09:36:45.465Z,27.80
2023-01-29T09:39:16.391Z,31.50
2023-01-29T09:42:05.875Z,28.83
2023-01-29T09:44:54.986Z,32.28
2023-01-29T09:47:28.190Z,31.13
2023-01-29T09:53:30.584Z,30.15
2023-01-29T09:56:07.634Z,23.67
2023-01-29T09:58:41.230Z,20.70
2023-01-29T10:01:19.413Z,24.08
2023-01-29T10:04:10.453Z,25.17
2023-01-29T10:06:45.625Z,23.98
2023-01-29T10:10:08.853Z,21.75
2023-01-29T10:13:12.939Z,18.65
2023-01-29T10:16:02.821Z,19.25
2023-01-29T10:18:54.334Z,23.05
2023-01-29T10:21:34.155Z,17.33
2023-01-29T10:24:23.206Z,18.70
2023-01-29T10:26:55.311Z,18.77
2023-01-29T10:29:29.304Z,21.35
2023-01-29T10:32:07.093Z,22.50
2023-01-29T10:34:41.609Z,17.02
2023-01-29T10:37:25.363Z,15.85
2023-01-29T10:39:55.739Z,16.35
2023-01-29T10:42:32.918Z,21.45
2023-01-29T10:45:19.571Z,17.15
2023-01-29T10:48:08.917Z,22.00
2023-01-29T10:50:54.941Z,18.48
2023-01-29T10:53:40.798Z,20.50
2023-01-29T10:56:30.523Z,25.23
2023-01-29T10:59:08.998Z,15.15
2023-01-29T11:01:42.808Z,16.73
2023-01-29T11:04:14.660Z,13.95
2023-01-29T11:06:45.612Z,16.67
2023-01-29T11:09:15.502Z,15.05
2023-01-29T11:11:49.852Z,16.67
2023-01-29T11:14:29.380Z,15.80
2023-01-29T11:17:03.451Z,17.30
2023-01-29T11:19:42.669Z,15.48
2023-01-29T11:22:17.018Z,17.95
2023-01-29T11:24:49.558Z,13.02
2023-01-29T11:27:30.952Z,15.32
2023-01-29T11:32:35.190Z,14.60
2023-01-29T11:35:18.273Z,14.48
2023-01-29T11:37:49.412Z,15.40
2023-01-29T11:40:40.274Z,14.20
2023-01-29T11:43:32.385Z,16.20
2023-01-29T11:46:10.150Z,15.82
2023-01-29T11:48:59.456Z,16.30
2023-01-29T11:51:39.454Z,12.25
2023-01-29T11:54:21.164Z,13.40
2023-01-29T11:56:52.890Z,11.90
2023-01-29T11:59:44.200Z,15.55
2023-01-29T12:02:24.072Z,12.07
2023-01-29T12:05:00.114Z,12.13
2023-01-29T12:07:32.987Z,15.50
2023-01-29T12:10:04.887Z,14.63
2023-01-29T12:12:43.439Z,14.35
2023-01-29T12:15:20.698Z,12.88
2023-01-29T12:18:00.006Z,10.75
2023-01-29T12:20:44.413Z,13.65
2023-01-29T12:23:27.566Z,20.65
2023-01-29T12:26:04.211Z,15.40
2023-01-29T12:28:37.472Z,16.58
2023-01-29T12:31:26.077Z,16.95
2023-01-29T12:34:17.775Z,17.42
2023-01-29T12:37:02.329Z,16.90
2023-01-29T12:39:34.029Z,14.32
2023-01-29T12:42:14.467Z,13.35
2023-01-29T12:44:54.109Z,19.35
2023-01-29T12:47:34.141Z,16.52
2023-01-29T12:50:20.331Z,16.20
2023-01-29T12:53:03.839Z,13.45
2023-01-29T12:55:45.825Z,14.65
2023-01-29T12:58:23.536Z,15.05
2023-01-29T13:01:00.194Z,11.40
2023-01-29T13:03:36.645Z,12.55
2023-01-29T13:06:16.493Z,11.20
2023-01-29T13:09:09.616Z,12.45
2023-01-29T13:14:32.997Z,11.40
2023-01-29T13:17:34.984Z,17.33
2023-01-29T13:20:28.040Z,15.68
2023-01-29T13:23:14.677Z,13.75
2023-01-29T13:25:46.069Z,13.43
2023-01-29T13:28:23.965Z,11.65
2023-01-29T13:31:15.427Z,12.13
2023-01-29T13:33:54.063Z,8.43
2023-01-29T13:36:30.339Z,10.35
2023-01-29T13:39:17.605Z,13.48
2023-01-29T13:41:48.174Z,13.40
2023-01-29T13:44:41.521Z,11.82
2023-01-29T13:47:23.490Z,12.13
2023-01-29T13:50:02.387Z,12.65
2023-01-29T13:52:58.760Z,10.45
2023-01-29T13:55:34.053Z,12.55
2023-01-29T13:58:06.552Z,12.45
2023-01-29T14:00:37.339Z,11.82
2023-01-29T14:03:13.523Z,12.82
2023-01-29T14:06:00.854Z,16.63
2023-01-29T14:08:39.281Z,11.90
2023-01-29T14:11:18.910Z,13.90
2023-01-29T14:13:53.602Z,10.57
2023-01-29T14:16:38.937Z,13.05
2023-01-29T14:19:24.305Z,14.20
2023-01-29T14:21:55.044Z,9.15
2023-01-29T14:24:29.566Z,10.25
2023-01-29T14:27:00.614Z,7.80
2023-01-29T14:29:35.122Z,7.40
2023-01-29T14:32:08.453Z,9.20
2023-01-29T14:34:49.446Z,9.02
2023-01-29T14:37:22.374Z,5.50
2023-01-29T14:43:27.102Z,6.78
2023-01-29T14:45:57.166Z,4.47
2023-01-29T14:48:39.642Z,4.97
2023-01-29T14:51:18.830Z,4.82
2023-01-29T14:53:52.075Z,7.93
2023-01-29T14:56:42.939Z,7.03
2023-01-29T14:59:21.223Z,7.18
2023-01-29T15:01:59.455Z,7.50
2023-01-29T15:04:55.906Z,7.60
2023-01-29T15:08:19.681Z,4.30
2023-01-29T15:11:14.710Z,6.50
2023-01-29T15:14:04.961Z,6.07
2023-01-29T15:16:57.205Z,5.43
2023-01-29T15:19:49.234Z,6.72
2023-01-29T15:22:27.054Z,5.40
2023-01-29T15:25:20.055Z,6.32
2023-01-29T15:27:52.601Z,3.67
2023-01-29T15:30:35.136Z,3.75
2023-01-29T15:33:06.230Z,5.75
2023-01-29T15:35:39.464Z,4.13
2023-01-29T15:38:22.550Z,6.18
2023-01-29T15:40:56.163Z,5.40
2023-01-29T15:43:26.566Z,3.35
2023-01-29T15:46:00.236Z,4.43
2023-01-29T15:48:50.866Z,7.60
2023-01-29T15:51:24.116Z,4.07
2023-01-29T15:54:06.057Z,6.25
2023-01-29T15:56:42.173Z,3.50
2023-01-29T15:59:19.944Z,4.50
2023-01-29T16:01:52.301Z,7.38
2023-01-29T16:04:29.959Z,5.03
2023-01-29T16:07:03.042Z,6.40
2023-01-29T16:09:33.643Z,6.03
2023-01-29T16:12:04.442Z,5.50
2023-01-29T16:14:36.088Z,6.47
2023-01-29T16:17:29.180Z,6.95
2023-01-29T16:20:01.624Z,4.50
2023-01-29T16:22:35.720Z,6.18
2023-01-29T16:25:16.283Z,4.78
2023-01-29T16:27:46.959Z,7.00
2023-01-29T16:30:20.145Z,6.07
2023-01-29T16:32:53.182Z,5.43
2023-01-29T16:35:23.659Z,4.78
2023-01-29T16:38:02.281Z,4.30
2023-01-29T16:40:36.698Z,6.18
2023-01-29T16:43:20.661Z,3.92
2023-01-29T16:46:21.528Z,6.45
2023-01-29T16:48:52.437Z,5.35
2023-01-29T16:51:41.891Z,4.80
2023-01-29T16:54:20.355Z,3.63
2023-01-29T16:56:54.253Z,5.57
2023-01-29T16:59:33.217Z,5.55
2023-01-29T17:02:05.632Z,8.52
2023-01-29T17:04:36.123Z,5.70
2023-01-29T17:07:06.081Z,5.65
2023-01-29T17:09:39.903Z,5.30
2023-01-29T17:12:20.683Z,5.20
2023-01-29T17:15:00.852Z,6.25
2023-01-29T17:17:33.332Z,5.95
2023-01-29T17:20:18.724Z,6.63
2023-01-29T17:22:50.273Z,5.10
2023-01-29T17:25:23.215Z,6.90
2023-01-29T17:27:53.572Z,4.55
2023-01-29T17:30:29.673Z,6.20
2023-01-29T17:33:00.547Z,5.30
2023-01-29T17:35:30.918Z,3.78
2023-01-29T17:38:01.308Z,5.63
2023-01-29T17:41:06.422Z,3.75
2023-01-29T17:43:38.052Z,3.50
2023-01-29T17:46:11.760Z,8.13
2023-01-29T17:48:43.089Z,5.10
2023-01-29T17:51:17.924Z,2.60
2023-01-29T17:53:48.682Z,5.10
2023-01-29T17:56:24.697Z,6.82
2023-01-29T17:58:55.043Z,6.20
2023-01-29T18:01:24.827Z,4.00
2023-01-29T18:03:56.948Z,5.07
2023-01-29T18:06:32.558Z,3.20
2023-01-29T18:09:03.209Z,3.70
2023-01-29T18:11:34.169Z,1.48
2023-01-29T18:14:14.069Z,3.85
2023-01-29T18:16:46.364Z,2.95
2023-01-29T18:19:24.499Z,2.80
2023-01-29T18:21:55.399Z,3.10
2023-01-29T18:24:28.525Z,5.28
2023-01-29T18:26:59.000Z,1.60
2023-01-29T18:29:31.265Z,1.73
2023-01-29T18:32:01.577Z,3.90
2023-01-29T18:34:31.461Z,1.45
2023-01-29T18:37:02.038Z,1.45
2023-01-29T18:39:32.248Z,3.35
2023-01-29T18:42:03.269Z,3.30
2023-01-29T18:44:33.252Z,1.58
2023-01-29T18:47:02.978Z,1.95
2023-01-29T18:49:33.505Z,2.92
2023-01-29T18:52:03.635Z,1.35
2023-01-29T18:54:34.006Z,2.38
2023-01-29T18:57:14.580Z,1.00
2023-01-29T18:59:54.630Z,1.33
2023-01-29T19:02:24.823Z,3.20
2023-01-29T19:04:55.654Z,2.10
2023-01-29T19:07:26.879Z,2.03
2023-01-29T19:09:57.322Z,1.95
2023-01-29T19:12:27.164Z,1.35
2023-01-29T19:14:58.187Z,2.78
2023-01-29T19:17:30.404Z,3.63
2023-01-29T19:20:03.323Z,1.55
2023-01-29T19:22:34.687Z,2.83
2023-01-29T19:25:05.181Z,4.72
2023-01-29T19:27:36.784Z,1.35
2023-01-29T19:30:08.308Z,2.88
2023-01-29T19:32:38.941Z,3.28
2023-01-29T19:35:10.398Z,4.30
2023-01-29T19:37:41.299Z,2.45
2023-01-29T19:40:11.873Z,6.43
2023-01-29T19:42:43.678Z,4.55
2023-01-29T19:45:14.991Z,3.22
2023-01-29T19:47:45.914Z,4.60
2023-01-29T19:50:16.491Z,6.68
2023-01-29T19:52:51.378Z,3.50
2023-01-29T19:55:23.577Z,3.25
2023-01-29T19:57:55.447Z,2.78
2023-01-29T20:00:26.157Z,4.47
2023-01-29T20:02:56.091Z,2.20
2023-01-29T20:05:28.335Z,2.67
2023-01-29T20:07:58.939Z,3.63
2023-01-29T20:10:29.633Z,2.65
2023-01-29T20:12:59.348Z,8.25
2023-01-29T20:15:29.429Z,4.40
2023-01-29T20:18:00.133Z,3.40
2023-01-29T20:20:32.557Z,1.85
2023-01-29T20:23:04.171Z,2.75
2023-01-29T20:25:34.360Z,3.63
2023-01-29T20:28:04.334Z,3.72
2023-01-29T20:30:36.186Z,3.25
2023-01-29T20:33:07.889Z,4.88
2023-01-29T20:35:39.106Z,3.58
2023-01-29T20:38:09.337Z,2.95
2023-01-29T20:40:39.871Z,5.10
2023-01-29T20:43:11.064Z,4.65
2023-01-29T20:45:41.694Z,4.35
2023-01-29T20:48:11.880Z,2.53
2023-01-29T20:50:44.011Z,4.07
2023-01-29T20:53:15.130Z,5.45
2023-01-29T20:55:46.983Z,3.75
2023-01-29T20:58:17.373Z,4.63
2023-01-29T21:00:47.551Z,4.68
2023-01-29T21:03:19.117Z,2.50
2023-01-29T21:05:49.503Z,4.10
2023-01-29T21:08:19.718Z,4.30
2023-01-29T21:10:52.066Z,5.03
2023-01-29T21:13:23.214Z,5.22
2023-01-29T21:15:53.697Z,4.68
2023-01-29T21:18:23.583Z,4.90
2023-01-29T21:20:55.209Z,5.32
2023-01-29T21:23:26.438Z,2.15
2023-01-29T21:26:04.764Z,2.47
2023-01-29T21:28:35.065Z,3.80
2023-01-29T21:31:11.213Z,3.13
2023-01-29T21:33:42.656Z,2.45
2023-01-29T21:36:12.979Z,2.15
2023-01-29T21:38:43.799Z,3.38
2023-01-29T21:41:14.026Z,4.43
2023-01-29T21:43:46.693Z,3.08
2023-01-29T21:46:17.232Z,4.28
2023-01-29T21:48:47.184Z,8.32
2023-01-29T21:51:18.916Z,3.40
2023-01-29T21:53:50.890Z,3.75
2023-01-29T21:56:21.095Z,7.13
2023-01-29T21:58:52.182Z,5.38
2023-01-29T22:01:37.337Z,7.22
2023-01-29T22:04:11.663Z,7.93
2023-01-29T22:06:41.810Z,2.65
2023-01-29T22:09:11.713Z,6.28
2023-01-29T22:11:43.454Z,5.90
2023-01-29T22:14:15.132Z,3.53
2023-01-29T22:16:47.916Z,3.72
2023-01-29T22:19:18.307Z,4.05
2023-01-29T22:21:48.056Z,4.95
2023-01-29T22:24:22.019Z,8.30
2023-01-29T22:26:53.589Z,5.40
2023-01-29T22:29:23.995Z,8.38
2023-01-29T22:31:54.221Z,3.60
2023-01-29T22:34:24.017Z,6.00
2023-01-29T22:36:54.955Z,3.80
2023-01-29T22:39:25.680Z,6.90
2023-01-29T22:41:55.946Z,4.82
2023-01-29T22:44:27.117Z,6.88
2023-01-29T22:46:57.395Z,6.75
2023-01-29T22:49:30.592Z,8.52
2023-01-29T22:52:13.424Z,4.00
2023-01-29T22:54:46.258Z,5.70
2023-01-29T22:57:17.091Z,8.00
2023-01-29T22:59:48.030Z,6.03
2023-01-29T23:02:19.037Z,4.95
2023-01-29T23:04:49.086Z,8.25
2023-01-29T23:07:18.863Z,5.88
2023-01-29T23:09:49.041Z,8.98
2023-01-29T23:12:19.113Z,8.30
2023-01-29T23:14:50.886Z,4.35
2023-01-29T23:17:21.187Z,5.93
2023-01-29T23:19:50.907Z,7.93
2023-01-29T23:22:23.213Z,8.73
2023-01-29T23:24:54.512Z,6.43
2023-01-29T23:27:25.388Z,8.50
2023-01-29T23:29:55.882Z,11.38
2023-01-29T23:32:26.770Z,8.23
2023-01-29T23:35:06.705Z,7.22
2023-01-29T23:37:38.029Z,4.93
2023-01-29T23:40:10.432Z,6.20
2023-01-29T23:42:40.645Z,9.07
2023-01-29T23:45:11.596Z,5.68
2023-01-29T23:47:42.437Z,11.30
2023-01-29T23:50:14.047Z,6.75
2023-01-29T23:52:45.602Z,4.57
2023-01-29T23:55:15.619Z,7.32
2023-01-29T23:57:45.322Z,8.98
